To NAV CANADA Home Page Login to a new session Search on AWWS site Feedback and Comments Disclaimer Vers la page française équivalente Tips FAQ What's new on the site To the Forecasts and Observations / NOTAM section To "File a Flight Plan" website Publications and other links Update of the User's profile FIC Telephone Numbers My Weather Data Folder Route Weather Data Regional Weather Data Local Weather Data To the Forecasts and Observations / NOTAM section
Request Generated 02/24/2017 at 03:39:02 UTC . Weather information available at that time is displayed.

METAR/TAF

WINDSOR/ON    

METAR CYQG 240300Z 04013KT 15SM BKN140 BKN170 04/02 A2982 RMK AC5AS2
SLP103=
METAR CYQG 240200Z 04013KT 15SM BKN250 04/03 A2981 RMK CI5 SLP098=
METAR CYQG 240100Z 03015KT 15SM BKN250 05/03 A2983 RMK CI5 SLP107=

TAF AMD CYQG 240323Z 2403/2424 04012KT P6SM FEW020 BKN140
FM240400 04012KT P6SM -SHRA FEW006 BKN030 OVC080 TEMPO 2404/2406
4SM -SHRA BR BKN006 OVC030
FM240600 04012KT 2SM -SHRA BR OVC004 TEMPO 2406/2409 6SM -SHRA BR
SCT004 OVC010 PROB30 2406/2409 2SM TSRA BR BKN005 OVC020CB
FM241000 13008KT 1/2SM -DZ FG VV002 PROB30 2410/2413 1/4SM FG
FM241500 19012G22KT P6SM BKN020
BECMG 2415/2417 20015G30KT
FM241900 20015G30KT P6SM BKN030
FM242300 20015G30KT P6SM -SHRA OVC030 PROB30 2423/2424 1SM +TSRA
BR OVC015CB
RMK NXT FCST BY 240600Z=
Your time UTC time
Weather data provided by Environment Canada and NAV CANADA